createdAt,value
2023-02-19T00:00:38.990Z,11.9
2023-02-19T00:01:38.981Z,11.9
2023-02-19T00:02:38.950Z,11.9
2023-02-19T00:03:39.041Z,11.9
2023-02-19T00:04:38.981Z,11.9
2023-02-19T00:05:38.947Z,11.9
2023-02-19T00:06:38.948Z,11.9
2023-02-19T00:07:38.952Z,12
2023-02-19T00:09:38.956Z,12
2023-02-19T00:10:38.967Z,12
2023-02-19T00:11:39.333Z,12
2023-02-19T00:12:38.950Z,12
2023-02-19T00:13:38.955Z,12
2023-02-19T00:14:38.976Z,12
2023-02-19T00:15:39.005Z,12
2023-02-19T00:16:38.944Z,12
2023-02-19T00:17:38.943Z,12
2023-02-19T00:18:38.962Z,12
2023-02-19T00:19:38.942Z,12.1
2023-02-19T00:20:38.956Z,12.1
2023-02-19T00:21:38.944Z,12
2023-02-19T00:22:38.938Z,12
2023-02-19T00:23:38.949Z,12
2023-02-19T00:24:38.940Z,12
2023-02-19T00:25:38.955Z,12
2023-02-19T00:26:38.952Z,12
2023-02-19T00:27:38.949Z,12
2023-02-19T00:28:38.945Z,11.9
2023-02-19T00:29:38.938Z,11.9
2023-02-19T00:30:38.954Z,11.9
2023-02-19T00:31:39.098Z,11.9
2023-02-19T00:32:38.958Z,11.9
2023-02-19T00:33:38.952Z,11.9
2023-02-19T00:34:38.953Z,12
2023-02-19T00:35:38.956Z,11.9
2023-02-19T00:36:38.948Z,11.8
2023-02-19T00:37:38.964Z,11.8
2023-02-19T00:38:38.942Z,11.8
2023-02-19T00:39:38.955Z,11.8
2023-02-19T00:40:38.956Z,11.8
2023-02-19T00:41:38.967Z,11.8
2023-02-19T00:42:38.956Z,11.8
2023-02-19T00:43:38.948Z,11.8
2023-02-19T00:44:38.956Z,11.8
2023-02-19T00:45:38.950Z,11.8
2023-02-19T00:46:39.056Z,11.8
2023-02-19T00:47:38.955Z,11.8
2023-02-19T00:48:38.950Z,11.8
2023-02-19T00:49:38.945Z,11.8
2023-02-19T00:50:38.944Z,11.8
2023-02-19T00:51:38.956Z,11.8
2023-02-19T00:52:38.965Z,11.8
2023-02-19T00:53:38.953Z,11.8
2023-02-19T00:54:38.940Z,11.7
2023-02-19T00:55:38.945Z,11.7
2023-02-19T00:56:38.952Z,11.7
2023-02-19T00:57:38.957Z,11.8
2023-02-19T00:58:38.954Z,11.8
2023-02-19T00:59:38.947Z,11.7
2023-02-19T01:00:38.950Z,11.8
2023-02-19T01:01:39.032Z,11.8
2023-02-19T01:02:38.992Z,11.8
2023-02-19T01:03:38.949Z,11.8
2023-02-19T01:04:39.002Z,11.8
2023-02-19T01:05:38.946Z,11.9
2023-02-19T01:06:38.950Z,11.9
2023-02-19T01:07:38.947Z,11.8
2023-02-19T01:08:38.952Z,11.8
2023-02-19T01:09:39.015Z,11.9
2023-02-19T01:10:38.947Z,11.9
2023-02-19T01:11:39.026Z,11.9
2023-02-19T01:12:38.958Z,12
2023-02-19T01:13:38.953Z,12
2023-02-19T01:14:39.015Z,12
2023-02-19T01:15:38.965Z,12
2023-02-19T01:16:38.948Z,12
2023-02-19T01:17:38.951Z,12
2023-02-19T01:18:38.936Z,12
2023-02-19T01:19:38.955Z,12
2023-02-19T01:20:38.942Z,12
2023-02-19T01:21:38.944Z,12
2023-02-19T01:22:38.979Z,12
2023-02-19T01:23:38.941Z,12
2023-02-19T01:24:38.937Z,12
2023-02-19T01:25:38.942Z,12
2023-02-19T01:26:38.943Z,12.1
2023-02-19T01:27:38.950Z,12
2023-02-19T01:28:38.950Z,12
2023-02-19T01:29:38.945Z,12
2023-02-19T01:30:38.940Z,11.9
2023-02-19T01:31:39.054Z,11.9
2023-02-19T01:32:38.934Z,11.9
2023-02-19T01:33:38.961Z,11.9
2023-02-19T01:34:38.957Z,11.9
2023-02-19T01:35:38.936Z,11.9
2023-02-19T01:36:38.956Z,11.9
2023-02-19T01:37:38.943Z,11.9
2023-02-19T01:38:38.946Z,11.9
2023-02-19T01:39:38.940Z,11.9
2023-02-19T01:40:38.946Z,11.9
2023-02-19T01:41:38.946Z,11.9
2023-02-19T01:42:39.076Z,11.9
2023-02-19T01:43:38.936Z,11.9
2023-02-19T01:44:39.031Z,11.9
2023-02-19T01:45:38.946Z,11.9
2023-02-19T01:46:39.040Z,12
2023-02-19T01:47:38.950Z,12
2023-02-19T01:48:38.951Z,12
2023-02-19T01:49:38.957Z,12
2023-02-19T01:51:38.951Z,12
2023-02-19T01:52:38.954Z,12
2023-02-19T01:53:38.941Z,12
2023-02-19T01:54:38.950Z,12
2023-02-19T01:55:38.946Z,11.9
2023-02-19T01:56:38.951Z,12
2023-02-19T01:57:38.956Z,12
2023-02-19T01:58:38.963Z,12
2023-02-19T01:59:38.944Z,12
2023-02-19T02:00:38.997Z,12
2023-02-19T02:01:38.984Z,12
2023-02-19T02:02:38.959Z,12
2023-02-19T02:03:38.941Z,11.9
2023-02-19T02:04:38.973Z,11.9
2023-02-19T02:05:38.977Z,11.9
2023-02-19T02:06:38.942Z,11.8
2023-02-19T02:07:38.949Z,11.8
2023-02-19T02:08:38.930Z,11.8
2023-02-19T02:09:38.943Z,11.8
2023-02-19T02:10:38.946Z,11.8
2023-02-19T02:12:38.943Z,11.8
2023-02-19T02:13:38.946Z,11.8
2023-02-19T02:14:38.955Z,11.8
2023-02-19T02:15:38.938Z,11.8
2023-02-19T02:16:38.942Z,11.8
2023-02-19T02:17:38.942Z,11.8
2023-02-19T02:18:38.947Z,11.8
2023-02-19T02:19:38.946Z,11.8
2023-02-19T02:20:38.950Z,11.8
2023-02-19T02:21:38.949Z,11.8
2023-02-19T02:22:38.951Z,11.7
2023-02-19T02:23:38.948Z,11.7
2023-02-19T02:24:38.949Z,11.8
2023-02-19T02:25:38.968Z,11.8
2023-02-19T02:26:38.941Z,11.8
2023-02-19T02:27:38.942Z,11.8
2023-02-19T02:28:38.947Z,11.8
2023-02-19T02:29:38.939Z,11.8
2023-02-19T02:30:38.977Z,11.8
2023-02-19T02:31:39.060Z,11.9
2023-02-19T02:33:38.940Z,11.8
2023-02-19T02:34:38.947Z,11.8
2023-02-19T02:35:39.035Z,11.8
2023-02-19T02:36:38.943Z,11.7
2023-02-19T02:37:38.957Z,11.7
2023-02-19T02:38:38.956Z,11.7
2023-02-19T02:39:38.936Z,11.7
2023-02-19T02:40:38.944Z,11.7
2023-02-19T02:41:38.944Z,11.8
2023-02-19T02:42:38.968Z,11.8
2023-02-19T02:43:38.940Z,11.8
2023-02-19T02:44:38.950Z,11.7
2023-02-19T02:45:39.035Z,11.7
2023-02-19T02:46:38.941Z,11.7
2023-02-19T02:47:38.952Z,11.7
2023-02-19T02:48:38.966Z,11.7
2023-02-19T02:49:38.955Z,11.7
2023-02-19T02:50:38.944Z,11.7
2023-02-19T02:51:38.959Z,11.8
2023-02-19T02:52:38.947Z,11.8
2023-02-19T02:53:38.941Z,11.7
2023-02-19T02:54:38.940Z,11.8
2023-02-19T02:55:38.950Z,11.8
2023-02-19T02:56:38.947Z,11.8
2023-02-19T02:58:38.944Z,11.8
2023-02-19T02:59:38.942Z,11.8
2023-02-19T03:00:38.965Z,11.8
2023-02-19T03:01:38.936Z,11.8
2023-02-19T03:02:38.953Z,11.8
2023-02-19T03:03:38.934Z,11.8
2023-02-19T03:04:38.944Z,11.8
2023-02-19T03:06:38.941Z,11.8
2023-02-19T03:07:38.986Z,11.8
2023-02-19T03:08:38.941Z,11.9
2023-02-19T03:09:38.937Z,11.9
2023-02-19T03:10:38.946Z,11.8
2023-02-19T03:11:38.950Z,11.8
2023-02-19T03:12:38.981Z,11.8
2023-02-19T03:13:38.942Z,11.8
2023-02-19T03:14:38.975Z,11.8
2023-02-19T03:15:38.939Z,11.8
2023-02-19T03:16:40.600Z,11.8
2023-02-19T03:17:38.962Z,11.9
2023-02-19T03:18:38.953Z,11.9
2023-02-19T03:19:38.941Z,11.8
2023-02-19T03:20:38.937Z,11.8
2023-02-19T03:21:39.004Z,11.8
2023-02-19T03:22:38.941Z,11.9
2023-02-19T03:23:38.952Z,11.9
2023-02-19T03:24:38.943Z,11.9
2023-02-19T03:25:38.941Z,11.9
2023-02-19T03:26:38.929Z,11.8
2023-02-19T03:27:38.955Z,11.8
2023-02-19T03:28:38.939Z,11.8
2023-02-19T03:29:38.946Z,11.7
2023-02-19T03:30:38.938Z,11.7
2023-02-19T03:32:38.948Z,11.7
2023-02-19T03:33:38.943Z,11.7
2023-02-19T03:34:38.933Z,11.7
2023-02-19T03:35:38.940Z,11.7
2023-02-19T03:36:38.930Z,11.7
2023-02-19T03:37:38.939Z,11.7
2023-02-19T03:38:38.934Z,11.7
2023-02-19T03:39:38.947Z,11.7
2023-02-19T03:40:38.949Z,11.7
2023-02-19T03:41:49.232Z,11.7
2023-02-19T03:42:49.219Z,11.8
2023-02-19T03:43:49.228Z,11.8
2023-02-19T03:44:39.316Z,11.8
2023-02-19T03:45:39.037Z,11.7
2023-02-19T03:46:38.951Z,11.6
2023-02-19T03:47:38.948Z,11.6
2023-02-19T03:48:38.967Z,11.6
2023-02-19T03:49:38.935Z,11.6
2023-02-19T03:50:38.951Z,11.6
2023-02-19T03:51:38.975Z,11.6
2023-02-19T03:52:38.936Z,11.6
2023-02-19T03:53:38.942Z,11.6
2023-02-19T03:54:38.939Z,11.7
2023-02-19T03:55:38.976Z,11.7
2023-02-19T03:56:38.946Z,11.7
2023-02-19T03:57:38.963Z,11.7
2023-02-19T03:58:38.935Z,11.7
2023-02-19T03:59:38.941Z,11.7
2023-02-19T04:00:38.956Z,11.7
2023-02-19T04:01:38.941Z,11.7
2023-02-19T04:02:38.941Z,11.7
2023-02-19T04:03:38.955Z,11.7
2023-02-19T04:04:38.984Z,11.8
2023-02-19T04:05:38.942Z,11.7
2023-02-19T04:06:38.953Z,11.7
2023-02-19T04:07:38.951Z,11.7
2023-02-19T04:08:38.951Z,11.7
2023-02-19T04:09:38.940Z,11.7
2023-02-19T04:10:39.001Z,11.7
2023-02-19T04:11:38.949Z,11.7
2023-02-19T04:12:38.945Z,11.6
2023-02-19T04:13:39.062Z,11.6
2023-02-19T04:14:38.949Z,11.6
2023-02-19T04:15:39.006Z,11.6
2023-02-19T04:16:38.946Z,11.6
2023-02-19T04:17:38.949Z,11.7
2023-02-19T04:18:38.944Z,11.7
2023-02-19T04:19:38.964Z,11.7
2023-02-19T04:20:38.945Z,11.7
2023-02-19T04:21:38.949Z,11.7
2023-02-19T04:22:38.939Z,11.7
2023-02-19T04:23:38.947Z,11.7
2023-02-19T04:24:38.946Z,11.7
2023-02-19T04:25:38.941Z,11.7
2023-02-19T04:26:38.933Z,11.6
2023-02-19T04:27:38.958Z,11.6
2023-02-19T04:28:38.936Z,11.6
2023-02-19T04:29:39.421Z,11.6
2023-02-19T04:30:39.009Z,11.6
2023-02-19T04:31:38.933Z,11.6
2023-02-19T04:32:38.946Z,11.6
2023-02-19T04:33:38.938Z,11.6
2023-02-19T04:34:38.941Z,11.6
2023-02-19T04:35:38.931Z,11.6
2023-02-19T04:36:38.940Z,11.6
2023-02-19T04:37:38.947Z,11.6
2023-02-19T04:38:38.993Z,11.6
2023-02-19T04:39:38.939Z,11.6
2023-02-19T04:40:38.926Z,11.6
2023-02-19T04:41:38.938Z,11.5
2023-02-19T04:42:38.941Z,11.6
2023-02-19T04:43:38.941Z,11.6
2023-02-19T04:44:38.947Z,11.6
2023-02-19T04:45:38.931Z,11.5
2023-02-19T04:46:40.299Z,11.5
2023-02-19T04:48:38.952Z,11.5
2023-02-19T04:49:38.953Z,11.5
2023-02-19T04:50:38.933Z,11.5
2023-02-19T04:51:38.941Z,11.5
2023-02-19T04:52:38.929Z,11.5
2023-02-19T04:53:38.940Z,11.5
2023-02-19T04:54:38.927Z,11.5
2023-02-19T04:55:38.942Z,11.5
2023-02-19T04:56:38.931Z,11.5
2023-02-19T04:57:38.991Z,11.4
2023-02-19T04:58:38.931Z,11.4
2023-02-19T04:59:38.948Z,11.4
2023-02-19T05:00:38.950Z,11.4
2023-02-19T05:01:38.965Z,11.4
2023-02-19T05:02:38.976Z,11.4
2023-02-19T05:03:38.950Z,11.4
2023-02-19T05:04:38.968Z,11.4
2023-02-19T05:05:38.926Z,11.4
2023-02-19T05:06:38.935Z,11.4
2023-02-19T05:07:38.958Z,11.4
2023-02-19T05:08:38.934Z,11.4
2023-02-19T05:09:38.939Z,11.4
2023-02-19T05:10:38.935Z,11.4
2023-02-19T05:11:38.927Z,11.4
2023-02-19T05:12:39.236Z,11.4
2023-02-19T05:13:39.012Z,11.4
2023-02-19T05:14:38.981Z,11.4
2023-02-19T05:16:38.923Z,11.4
2023-02-19T05:17:38.927Z,11.4
2023-02-19T05:18:38.929Z,11.4
2023-02-19T05:19:39.012Z,11.4
2023-02-19T05:20:38.931Z,11.4
2023-02-19T05:22:38.932Z,11.4
2023-02-19T05:23:38.956Z,11.4
2023-02-19T05:24:38.938Z,11.4
2023-02-19T05:25:38.937Z,11.4
2023-02-19T05:26:38.927Z,11.4
2023-02-19T05:27:38.926Z,11.4
2023-02-19T05:28:38.943Z,11.4
2023-02-19T05:29:38.939Z,11.4
2023-02-19T05:30:38.930Z,11.5
2023-02-19T05:31:39.037Z,11.5
2023-02-19T05:32:38.926Z,11.5
2023-02-19T05:33:38.939Z,11.5
2023-02-19T05:34:38.940Z,11.4
2023-02-19T05:35:38.929Z,11.5
2023-02-19T05:36:38.941Z,11.5
2023-02-19T05:37:38.931Z,11.5
2023-02-19T05:38:38.928Z,11.4
2023-02-19T05:39:38.924Z,11.4
2023-02-19T05:40:38.969Z,11.4
2023-02-19T05:41:38.932Z,11.4
2023-02-19T05:43:38.934Z,11.4
2023-02-19T05:44:38.924Z,11.4
2023-02-19T05:45:38.926Z,11.4
2023-02-19T05:46:39.038Z,11.4
2023-02-19T05:47:38.935Z,11.4
2023-02-19T05:48:38.935Z,11.4
2023-02-19T05:49:38.927Z,11.4
2023-02-19T05:50:39.960Z,11.4
2023-02-19T05:51:38.931Z,11.3
2023-02-19T05:52:38.940Z,11.3
2023-02-19T05:53:38.928Z,11.3
2023-02-19T05:54:38.933Z,11.3
2023-02-19T05:55:38.937Z,11.3
2023-02-19T05:56:38.947Z,11.3
2023-02-19T05:57:38.939Z,11.3
2023-02-19T05:58:38.942Z,11.3
2023-02-19T05:59:38.928Z,11.3
2023-02-19T06:00:38.940Z,11.3
2023-02-19T06:02:38.973Z,11.3
2023-02-19T06:03:39.101Z,11.3
2023-02-19T06:04:38.932Z,11.3
2023-02-19T06:05:38.938Z,11.3
2023-02-19T06:06:40.198Z,11.3
2023-02-19T06:07:38.926Z,11.3
2023-02-19T06:08:38.957Z,11.3
2023-02-19T06:09:38.930Z,11.4
2023-02-19T06:10:38.931Z,11.3
2023-02-19T06:11:38.933Z,11.3
2023-02-19T06:12:38.929Z,11.3
2023-02-19T06:13:38.919Z,11.3
2023-02-19T06:14:38.932Z,11.3
2023-02-19T06:15:38.937Z,11.3
2023-02-19T06:16:38.950Z,11.3
2023-02-19T06:17:38.951Z,11.2
2023-02-19T06:18:38.928Z,11.2
2023-02-19T06:19:38.929Z,11.1
2023-02-19T06:20:38.932Z,11.1
2023-02-19T06:21:38.929Z,11.1
2023-02-19T06:22:38.932Z,11.1
2023-02-19T06:23:38.930Z,11.2
2023-02-19T06:24:38.921Z,11.2
2023-02-19T06:25:38.941Z,11.2
2023-02-19T06:26:38.927Z,11.2
2023-02-19T06:27:38.929Z,11.2
2023-02-19T06:28:38.933Z,11.1
2023-02-19T06:29:38.925Z,11.2
2023-02-19T06:30:38.947Z,11.2
2023-02-19T06:31:39.014Z,11.2
2023-02-19T06:32:38.922Z,11.2
2023-02-19T06:33:38.932Z,11.2
2023-02-19T06:34:38.933Z,11.2
2023-02-19T06:35:38.986Z,11.2
2023-02-19T06:36:38.928Z,11.2
2023-02-19T06:37:38.943Z,11.2
2023-02-19T06:38:38.964Z,11.2
2023-02-19T06:39:38.933Z,11.2
2023-02-19T06:40:38.940Z,11.3
2023-02-19T06:41:38.956Z,11.3
2023-02-19T06:42:38.934Z,11.3
2023-02-19T06:43:38.922Z,11.3
2023-02-19T06:44:39.110Z,11.2
2023-02-19T06:45:38.970Z,11.2
2023-02-19T06:46:39.008Z,11.2
2023-02-19T06:47:38.934Z,11.2
2023-02-19T06:49:38.929Z,11.2
2023-02-19T06:50:38.935Z,11.2
2023-02-19T06:51:38.943Z,11.2
2023-02-19T06:52:38.937Z,11.2
2023-02-19T06:53:38.942Z,11.3
2023-02-19T06:54:38.932Z,11.3
2023-02-19T06:55:38.929Z,11.3
2023-02-19T06:56:38.938Z,11.3
2023-02-19T06:57:38.944Z,11.3
2023-02-19T06:58:38.940Z,11.3
2023-02-19T06:59:38.933Z,11.3
2023-02-19T07:00:38.952Z,11.3
2023-02-19T07:01:38.957Z,11.3
2023-02-19T07:02:38.937Z,11.3
2023-02-19T07:03:38.929Z,11.3
2023-02-19T07:04:38.946Z,11.3
2023-02-19T07:05:38.925Z,11.3
2023-02-19T07:07:38.981Z,11.3
2023-02-19T07:08:38.929Z,11.3
2023-02-19T07:09:38.927Z,11.3
2023-02-19T07:11:38.967Z,11.3
2023-02-19T07:12:39.247Z,11.4
2023-02-19T07:13:38.937Z,11.3
2023-02-19T07:14:38.933Z,11.3
2023-02-19T07:15:38.933Z,11.3
2023-02-19T07:16:38.995Z,11.3
2023-02-19T07:17:38.932Z,11.3
2023-02-19T07:18:38.924Z,11.3
2023-02-19T07:19:38.921Z,11.3
2023-02-19T07:20:38.928Z,11.3
2023-02-19T07:21:38.936Z,11.2
2023-02-19T07:22:38.934Z,11.3
2023-02-19T07:23:38.915Z,11.3
2023-02-19T07:24:38.926Z,11.3
2023-02-19T07:25:38.924Z,11.3
2023-02-19T07:26:38.926Z,11.3
2023-02-19T07:27:38.926Z,11.3
2023-02-19T07:28:38.924Z,11.3
2023-02-19T07:29:38.921Z,11.3
2023-02-19T07:30:38.927Z,11.3
2023-02-19T07:31:39.069Z,11.3
2023-02-19T07:32:38.922Z,11.3
2023-02-19T07:33:38.924Z,11.3
2023-02-19T07:34:38.919Z,11.3
2023-02-19T07:35:38.926Z,11.3
2023-02-19T07:36:38.944Z,11.3
2023-02-19T07:37:38.936Z,11.3
2023-02-19T07:38:38.928Z,11.3
2023-02-19T07:39:38.933Z,11.3
2023-02-19T07:40:38.933Z,11.3
2023-02-19T07:41:38.935Z,11.3
2023-02-19T07:42:38.918Z,11.3
2023-02-19T07:43:38.933Z,11.3
2023-02-19T07:44:38.926Z,11.3
2023-02-19T07:45:39.001Z,11.3
2023-02-19T07:46:38.944Z,11.3
2023-02-19T07:47:38.927Z,11.3
2023-02-19T07:48:38.924Z,11.3
2023-02-19T07:50:38.932Z,11.4
2023-02-19T07:51:38.938Z,11.4
2023-02-19T07:52:38.919Z,11.4
2023-02-19T07:53:38.928Z,11.4
2023-02-19T07:54:39.088Z,11.4
2023-02-19T07:55:38.939Z,11.4
2023-02-19T07:56:38.948Z,11.4
2023-02-19T07:57:38.931Z,11.4
2023-02-19T07:58:38.934Z,11.4
2023-02-19T07:59:38.979Z,11.4
2023-02-19T08:00:38.938Z,11.4
2023-02-19T08:01:38.934Z,11.5
2023-02-19T08:02:38.936Z,11.5
2023-02-19T08:03:39.030Z,11.6
2023-02-19T08:04:38.981Z,11.6
2023-02-19T08:05:38.942Z,11.6
2023-02-19T08:06:33.620Z,11.6
2023-02-19T08:07:38.935Z,11.6
2023-02-19T08:08:38.923Z,11.7
2023-02-19T08:09:38.936Z,11.7
2023-02-19T08:10:38.917Z,11.8
2023-02-19T08:11:38.925Z,11.8
2023-02-19T08:12:38.947Z,11.8
2023-02-19T08:13:38.930Z,11.8
2023-02-19T08:14:38.926Z,11.8
2023-02-19T08:15:38.937Z,11.8
2023-02-19T08:16:43.398Z,11.8
2023-02-19T08:17:38.945Z,11.8
2023-02-19T08:18:38.933Z,11.8
2023-02-19T08:19:38.938Z,11.9
2023-02-19T08:20:38.925Z,11.8
2023-02-19T08:21:38.927Z,11.8
2023-02-19T08:22:38.930Z,11.7
2023-02-19T08:23:38.928Z,11.8
2023-02-19T08:24:38.930Z,11.7
2023-02-19T08:25:38.927Z,11.8
2023-02-19T08:26:38.977Z,11.9
2023-02-19T08:27:38.925Z,11.9
2023-02-19T08:28:38.940Z,12
2023-02-19T08:29:38.920Z,12.1
2023-02-19T08:30:39.045Z,12.1
2023-02-19T08:31:39.027Z,12.2
2023-02-19T08:32:38.923Z,12.3
2023-02-19T08:33:39.316Z,12.4
2023-02-19T08:34:38.929Z,12.4
2023-02-19T08:35:38.936Z,12.5
2023-02-19T08:36:38.962Z,12.5
2023-02-19T08:37:38.920Z,12.5
2023-02-19T08:38:38.998Z,12.6
2023-02-19T08:39:38.941Z,12.6
2023-02-19T08:40:38.944Z,12.7
2023-02-19T08:41:38.928Z,12.8
2023-02-19T08:42:38.934Z,12.8
2023-02-19T08:43:38.940Z,12.8
2023-02-19T08:44:38.952Z,12.8
2023-02-19T08:45:38.946Z,12.8
2023-02-19T08:46:38.933Z,12.8
2023-02-19T08:47:38.918Z,12.8
2023-02-19T08:48:38.962Z,12.9
2023-02-19T08:49:38.927Z,12.9
2023-02-19T08:50:38.941Z,13
2023-02-19T08:51:38.930Z,13
2023-02-19T08:52:38.934Z,13
2023-02-19T08:53:38.926Z,13
2023-02-19T08:54:38.927Z,12.9
2023-02-19T08:55:38.932Z,12.9
2023-02-19T08:56:38.924Z,13
2023-02-19T08:57:38.922Z,13
2023-02-19T08:58:38.971Z,13
2023-02-19T08:59:38.917Z,13
2023-02-19T09:00:38.941Z,12.9
2023-02-19T09:01:38.991Z,12.9
2023-02-19T09:02:38.913Z,12.9
2023-02-19T09:03:38.926Z,12.8
2023-02-19T09:04:38.925Z,12.8
2023-02-19T09:05:38.947Z,12.7
2023-02-19T09:06:40.103Z,12.7
2023-02-19T09:07:38.924Z,12.7
2023-02-19T09:08:38.918Z,12.7
2023-02-19T09:09:38.931Z,12.7
2023-02-19T09:10:38.927Z,12.7
2023-02-19T09:11:38.921Z,12.7
2023-02-19T09:12:38.931Z,12.7
2023-02-19T09:14:38.931Z,12.6
2023-02-19T09:15:38.973Z,12.6
2023-02-19T09:16:38.949Z,12.6
2023-02-19T09:17:38.917Z,12.5
2023-02-19T09:18:38.920Z,12.5
2023-02-19T09:19:38.922Z,12.5
2023-02-19T09:20:38.916Z,12.5
2023-02-19T09:21:38.922Z,12.5
2023-02-19T09:22:38.914Z,12.5
2023-02-19T09:23:38.935Z,12.6
2023-02-19T09:24:38.915Z,12.6
2023-02-19T09:25:38.933Z,12.6
2023-02-19T09:26:38.925Z,12.7
2023-02-19T09:27:38.925Z,12.7
2023-02-19T09:28:38.922Z,12.8
2023-02-19T09:29:38.920Z,12.9
2023-02-19T09:30:39.013Z,12.9
2023-02-19T09:31:39.039Z,12.9
2023-02-19T09:32:38.922Z,12.9
2023-02-19T09:33:38.928Z,12.9
2023-02-19T09:34:38.933Z,12.8
2023-02-19T09:35:39.021Z,12.8
2023-02-19T09:36:38.929Z,12.7
2023-02-19T09:37:38.928Z,12.7
2023-02-19T09:38:38.924Z,12.6
2023-02-19T09:39:38.937Z,12.6
2023-02-19T09:40:38.938Z,12.7
2023-02-19T09:41:38.932Z,12.7
2023-02-19T09:42:38.919Z,12.6
2023-02-19T09:43:38.922Z,12.7
2023-02-19T09:44:38.942Z,12.6
2023-02-19T09:45:38.929Z,12.5
2023-02-19T09:46:38.931Z,12.5
2023-02-19T09:47:38.924Z,12.5
2023-02-19T09:48:38.926Z,12.4
2023-02-19T09:49:38.938Z,12.4
2023-02-19T09:50:38.922Z,12.5
2023-02-19T09:51:38.920Z,12.5
2023-02-19T09:52:38.927Z,12.6
2023-02-19T09:53:38.929Z,12.6
2023-02-19T09:54:38.943Z,12.6
2023-02-19T09:55:38.973Z,12.7
2023-02-19T09:56:38.932Z,12.8
2023-02-19T09:57:38.923Z,12.9
2023-02-19T09:58:38.940Z,13
2023-02-19T09:59:38.920Z,13.1
2023-02-19T10:00:38.913Z,13.2
2023-02-19T10:01:39.022Z,13.4
2023-02-19T10:02:38.935Z,13.5
2023-02-19T10:03:38.933Z,13.6
2023-02-19T10:04:38.930Z,13.7
2023-02-19T10:05:38.914Z,13.7
2023-02-19T10:06:38.916Z,13.8
2023-02-19T10:07:38.964Z,13.9
2023-02-19T10:08:38.926Z,14
2023-02-19T10:09:38.922Z,14
2023-02-19T10:10:38.916Z,14
2023-02-19T10:11:38.939Z,14
2023-02-19T10:12:38.956Z,14
2023-02-19T10:13:38.922Z,14.1
2023-02-19T10:14:38.940Z,14
2023-02-19T10:15:38.947Z,14
2023-02-19T10:16:38.930Z,14
2023-02-19T10:17:39.213Z,13.9
2023-02-19T10:19:38.966Z,13.8
2023-02-19T10:21:38.934Z,13.6
2023-02-19T10:22:38.917Z,13.5
2023-02-19T10:23:38.910Z,13.5
2023-02-19T10:24:39.201Z,13.4
2023-02-19T10:25:38.925Z,13.5
2023-02-19T10:26:38.910Z,13.5
2023-02-19T10:27:38.927Z,13.5
2023-02-19T10:28:38.920Z,13.5
2023-02-19T10:29:38.911Z,13.6
2023-02-19T10:30:38.919Z,13.5
2023-02-19T10:31:39.038Z,13.5
2023-02-19T10:32:38.922Z,13.5
2023-02-19T10:33:38.927Z,13.5
2023-02-19T10:34:38.932Z,13.4
2023-02-19T10:35:38.937Z,13.5
2023-02-19T10:36:38.927Z,13.5
2023-02-19T10:37:38.942Z,13.6
2023-02-19T10:38:38.949Z,13.5
2023-02-19T10:39:38.927Z,13.5
2023-02-19T10:40:38.911Z,13.5
2023-02-19T10:41:38.923Z,13.5
2023-02-19T10:42:38.926Z,13.5
2023-02-19T10:43:38.955Z,13.5
2023-02-19T10:44:38.917Z,13.4
2023-02-19T10:45:38.920Z,13.4
2023-02-19T10:46:39.009Z,13.5
2023-02-19T10:47:38.912Z,13.5
2023-02-19T10:48:38.926Z,13.5
2023-02-19T10:49:38.938Z,13.5
2023-02-19T10:50:38.932Z,13.6
2023-02-19T10:51:38.933Z,13.6
2023-02-19T10:52:38.914Z,13.6
2023-02-19T10:53:38.926Z,13.7
2023-02-19T10:54:38.920Z,13.8
2023-02-19T10:55:38.933Z,13.9
2023-02-19T10:56:38.968Z,14
2023-02-19T10:57:38.925Z,14.1
2023-02-19T10:58:38.916Z,14.2
2023-02-19T10:59:38.915Z,14.2
2023-02-19T11:00:38.911Z,14.1
2023-02-19T11:01:38.940Z,14.1
2023-02-19T11:02:38.926Z,14.2
2023-02-19T11:03:38.919Z,14.3
2023-02-19T11:04:38.978Z,14.5
2023-02-19T11:05:38.923Z,14.6
2023-02-19T11:06:38.933Z,14.8
2023-02-19T11:07:38.915Z,15
2023-02-19T11:08:38.923Z,15
2023-02-19T11:09:38.917Z,15
2023-02-19T11:10:39.304Z,14.9
2023-02-19T11:11:38.927Z,14.8
2023-02-19T11:12:38.921Z,14.7
2023-02-19T11:13:38.927Z,14.7
2023-02-19T11:14:38.915Z,14.7
2023-02-19T11:15:38.915Z,14.6
2023-02-19T11:16:38.970Z,14.6
2023-02-19T11:17:38.916Z,14.7
2023-02-19T11:19:38.912Z,14.6
2023-02-19T11:20:38.924Z,14.7
2023-02-19T11:21:38.921Z,14.7
2023-02-19T11:22:38.925Z,14.8
2023-02-19T11:23:38.912Z,15
2023-02-19T11:24:38.934Z,15.1
2023-02-19T11:25:38.918Z,15.2
2023-02-19T11:26:38.928Z,15.3
2023-02-19T11:27:38.921Z,15.3
2023-02-19T11:28:38.923Z,15.3
2023-02-19T11:29:38.918Z,15.3
2023-02-19T11:30:38.978Z,15.2
2023-02-19T11:31:39.017Z,15.1
2023-02-19T11:32:38.927Z,15
2023-02-19T11:33:38.920Z,14.9
2023-02-19T11:34:38.924Z,14.8
2023-02-19T11:35:38.936Z,14.7
2023-02-19T11:36:38.918Z,14.7
2023-02-19T11:37:38.920Z,14.7
2023-02-19T11:38:38.979Z,14.7
2023-02-19T11:39:38.920Z,14.6
2023-02-19T11:40:38.932Z,14.6
2023-02-19T11:41:38.930Z,14.6
2023-02-19T11:42:38.929Z,14.5
2023-02-19T11:43:38.937Z,14.5
2023-02-19T11:44:38.930Z,14.3
2023-02-19T11:45:38.934Z,14
2023-02-19T11:46:38.955Z,13.9
2023-02-19T11:47:38.930Z,13.8
2023-02-19T11:48:39.051Z,13.8
2023-02-19T11:49:38.936Z,13.9
2023-02-19T11:50:38.924Z,14
2023-02-19T11:51:38.935Z,14
2023-02-19T11:52:38.935Z,14.1
2023-02-19T11:53:38.920Z,14.1
2023-02-19T11:54:38.932Z,14.2
2023-02-19T11:55:38.984Z,14.3
2023-02-19T11:56:38.956Z,14.5
2023-02-19T11:57:38.963Z,14.8
2023-02-19T11:58:38.928Z,14.9
2023-02-19T11:59:38.939Z,15.1
2023-02-19T12:00:38.928Z,15.3
2023-02-19T12:01:38.981Z,15.4
2023-02-19T12:02:38.939Z,15.4
2023-02-19T12:03:38.921Z,15.5
2023-02-19T12:04:38.930Z,15.5
2023-02-19T12:05:38.919Z,15.4
2023-02-19T12:06:38.924Z,15.3
2023-02-19T12:07:38.951Z,15.2
2023-02-19T12:08:38.943Z,15.2
2023-02-19T12:09:38.924Z,15
2023-02-19T12:10:38.933Z,14.8
2023-02-19T12:11:38.931Z,14.8
2023-02-19T12:12:38.924Z,14.7
2023-02-19T12:13:38.928Z,14.7
2023-02-19T12:14:38.949Z,14.6
2023-02-19T12:15:38.927Z,14.7
2023-02-19T12:16:38.951Z,14.7
2023-02-19T12:17:38.928Z,14.8
2023-02-19T12:18:38.933Z,14.8
2023-02-19T12:19:38.921Z,14.9
2023-02-19T12:20:38.926Z,14.9
2023-02-19T12:21:38.964Z,14.9
2023-02-19T12:22:38.926Z,15
2023-02-19T12:24:38.933Z,15
2023-02-19T12:25:38.933Z,15
2023-02-19T12:26:38.931Z,15
2023-02-19T12:27:38.928Z,14.9
2023-02-19T12:28:38.914Z,14.8
2023-02-19T12:29:38.929Z,14.8
2023-02-19T12:30:39.057Z,14.7
2023-02-19T12:31:38.941Z,14.5
2023-02-19T12:32:38.916Z,14.3
2023-02-19T12:33:38.918Z,14.1
2023-02-19T12:34:38.932Z,13.9
2023-02-19T12:35:38.932Z,13.8
2023-02-19T12:36:38.915Z,13.7
2023-02-19T12:37:39.082Z,13.6
2023-02-19T12:38:38.919Z,13.6
2023-02-19T12:39:38.929Z,13.5
2023-02-19T12:40:38.927Z,13.5
2023-02-19T12:41:38.945Z,13.4
2023-02-19T12:42:38.959Z,13.4
2023-02-19T12:43:38.914Z,13.4
2023-02-19T12:44:38.931Z,13.4
2023-02-19T12:45:39.205Z,13.4
2023-02-19T12:46:38.921Z,13.4
2023-02-19T12:47:38.925Z,13.4
2023-02-19T12:48:38.914Z,13.4
2023-02-19T12:49:38.920Z,13.4
2023-02-19T12:50:38.923Z,13.4
2023-02-19T12:51:38.927Z,13.5
2023-02-19T12:52:38.935Z,13.5
2023-02-19T12:53:38.947Z,13.5
2023-02-19T12:54:38.930Z,13.6
2023-02-19T12:55:38.955Z,13.6
2023-02-19T12:56:38.931Z,13.6
2023-02-19T12:57:38.932Z,13.7
2023-02-19T12:58:38.941Z,13.7
2023-02-19T12:59:38.952Z,13.8
2023-02-19T13:00:38.952Z,13.9
2023-02-19T13:01:38.928Z,13.9
2023-02-19T13:02:39.013Z,14
2023-02-19T13:03:38.940Z,14
2023-02-19T13:04:38.920Z,14.1
2023-02-19T13:05:38.936Z,14.2
2023-02-19T13:06:38.950Z,14.3
2023-02-19T13:07:38.924Z,14.4
2023-02-19T13:08:42.052Z,14.5
2023-02-19T13:09:38.924Z,14.6
2023-02-19T13:10:38.929Z,14.7
2023-02-19T13:11:38.956Z,14.7
2023-02-19T13:12:38.930Z,14.7
2023-02-19T13:13:38.922Z,14.8
2023-02-19T13:14:38.931Z,14.8
2023-02-19T13:15:38.924Z,14.7
2023-02-19T13:16:38.991Z,14.7
2023-02-19T13:17:38.944Z,14.7
2023-02-19T13:18:38.938Z,14.7
2023-02-19T13:19:38.941Z,14.7
2023-02-19T13:20:38.952Z,14.7
2023-02-19T13:21:38.933Z,14.7
2023-02-19T13:22:38.950Z,14.7
2023-02-19T13:23:38.937Z,14.7
2023-02-19T13:24:38.943Z,14.7
2023-02-19T13:25:38.944Z,14.6
2023-02-19T13:26:38.951Z,14.5
2023-02-19T13:27:41.348Z,14.5
2023-02-19T13:28:38.934Z,14.4
2023-02-19T13:29:38.958Z,14.3
2023-02-19T13:30:39.026Z,14.3
2023-02-19T13:31:39.188Z,14.3
2023-02-19T13:32:38.951Z,14.3
2023-02-19T13:33:38.957Z,14.2
2023-02-19T13:34:38.931Z,14.2
2023-02-19T13:35:38.939Z,14.1
2023-02-19T13:36:38.931Z,14.1
2023-02-19T13:37:38.927Z,14
2023-02-19T13:38:38.936Z,13.9
2023-02-19T13:39:38.927Z,13.9
2023-02-19T13:40:38.929Z,13.9
2023-02-19T13:41:38.928Z,13.9
2023-02-19T13:42:38.931Z,13.9
2023-02-19T13:43:38.971Z,13.9
2023-02-19T13:44:38.925Z,13.8
2023-02-19T13:45:38.937Z,13.8